Time;durP1;ratioP1;P1;durP2;ratioP2;P2;SDS_P1;SDS_P2;PMS_P1;PMS_P2;Temp;Humidity;BMP_temperature;BMP_pressure;BME280_temperature;BME280_humidity;BME280_pressure;Samples;Min_cycle;Max_cycle;Signal;HPM_P1;HPM_P2
2022/07/18 00:00:41;;;;;;;6.40;3.78;;;19.00;99.90;;;;;;5099257;28;20421;-73
2022/07/18 00:03:07;;;;;;;6.80;3.60;;;19.00;99.90;;;;;;5098817;28;20503;-73
2022/07/18 00:05:32;;;;;;;6.63;3.42;;;18.80;99.90;;;;;;5099240;28;20336;-73
2022/07/18 00:07:58;;;;;;;6.47;3.80;;;18.80;99.90;;;;;;5064745;28;20104;-73
2022/07/18 00:10:24;;;;;;;7.00;3.78;;;18.80;99.90;;;;;;5081407;28;20040;-73
2022/07/18 00:12:49;;;;;;;6.63;3.80;;;18.80;99.90;;;;;;5098192;28;20044;-74
2022/07/18 00:15:15;;;;;;;6.50;3.63;;;18.70;99.90;;;;;;5098166;28;20070;-74
2022/07/18 00:17:41;;;;;;;7.18;3.78;;;18.60;99.90;;;;;;5098440;28;20443;-74
2022/07/18 00:20:09;;;;;;;6.18;3.60;;;18.60;99.90;;;;;;5098476;28;20032;-73
2022/07/18 00:22:35;;;;;;;8.20;3.55;;;18.60;99.90;;;;;;5099402;28;20069;-73
2022/07/18 00:25:01;;;;;;;5.07;3.67;;;18.50;99.90;;;;;;5132268;27;20538;-73
2022/07/18 00:27:27;;;;;;;6.22;3.75;;;18.40;99.90;;;;;;5080841;28;20067;-74
2022/07/18 00:29:52;;;;;;;5.75;3.80;;;18.40;99.90;;;;;;5097358;28;20048;-73
2022/07/18 00:32:18;;;;;;;4.22;2.97;;;18.40;99.90;;;;;;5098178;28;20090;-73
2022/07/18 00:34:44;;;;;;;6.88;3.95;;;18.40;99.90;;;;;;5099021;28;20040;-73
2022/07/18 00:37:09;;;;;;;5.88;3.53;;;18.40;99.90;;;;;;5099268;28;20032;-73
2022/07/18 00:39:35;;;;;;;6.38;3.90;;;18.30;99.90;;;;;;5097693;28;20452;-73
2022/07/18 00:42:02;;;;;;;6.75;3.58;;;18.30;99.90;;;;;;5098961;28;20128;-74
2022/07/18 00:44:28;;;;;;;7.15;3.80;;;18.40;99.90;;;;;;5098927;28;20035;-73
2022/07/18 00:46:59;;;;;;;6.90;3.47;;;18.40;99.90;;;;;;5097600;28;20048;-73
2022/07/18 00:49:25;;;;;;;7.38;3.92;;;18.40;99.90;;;;;;5098612;28;20076;-73
2022/07/18 00:51:51;;;;;;;6.18;3.83;;;18.30;99.90;;;;;;5097643;28;20125;-73
2022/07/18 00:54:18;;;;;;;6.22;3.70;;;18.30;99.90;;;;;;5098489;28;20051;-73
2022/07/18 00:56:44;;;;;;;5.95;3.70;;;18.30;99.90;;;;;;5098517;28;20440;-73
2022/07/18 00:59:12;;;;;;;7.07;4.20;;;18.30;99.90;;;;;;5097263;28;20040;-73
2022/07/18 01:01:47;;;;;;;8.95;4.22;;;18.20;99.90;;;;;;5097824;28;20086;-73
2022/07/18 01:04:16;;;;;;;5.85;3.88;;;18.20;99.90;;;;;;5097105;28;20051;-73
2022/07/18 01:06:42;;;;;;;5.43;3.47;;;18.20;99.90;;;;;;5097257;28;20119;-73
2022/07/18 01:09:08;;;;;;;6.13;4.03;;;18.20;99.90;;;;;;5097352;28;20513;-75
2022/07/18 01:11:34;;;;;;;9.55;4.10;;;18.20;99.90;;;;;;5098017;28;20076;-73
2022/07/18 01:14:02;;;;;;;8.27;3.88;;;18.10;99.90;;;;;;5097995;28;20047;-74
2022/07/18 01:16:29;;;;;;;9.30;3.95;;;18.10;99.90;;;;;;5098320;28;20306;-74
2022/07/18 01:18:54;;;;;;;6.60;3.80;;;18.00;99.90;;;;;;5096960;28;20044;-73
2022/07/18 01:21:20;;;;;;;5.43;3.17;;;18.00;99.90;;;;;;5097207;28;20044;-73
2022/07/18 01:23:46;;;;;;;6.60;3.80;;;17.90;99.90;;;;;;5098038;28;20032;-74
2022/07/18 01:26:14;;;;;;;6.43;4.00;;;17.80;99.90;;;;;;5096903;28;20044;-73
2022/07/18 01:28:40;;;;;;;6.93;3.72;;;17.80;99.90;;;;;;5096115;28;20100;-73
2022/07/18 01:31:06;;;;;;;6.88;4.05;;;17.80;99.90;;;;;;5096964;28;20056;-74
2022/07/18 01:33:33;;;;;;;7.72;4.00;;;17.80;99.90;;;;;;5096519;28;20047;-73
2022/07/18 01:36:00;;;;;;;7.10;4.03;;;17.80;99.90;;;;;;5097748;28;20171;-73
2022/07/18 01:38:29;;;;;;;7.35;4.10;;;17.80;99.90;;;;;;5096841;28;20322;-74
2022/07/18 01:40:55;;;;;;;7.93;4.15;;;17.70;99.90;;;;;;5097431;28;20505;-73
2022/07/18 01:43:22;;;;;;;6.45;4.07;;;17.70;99.90;;;;;;5096636;28;20058;-73
2022/07/18 01:45:48;;;;;;;7.88;3.80;;;17.70;99.90;;;;;;5096639;28;20395;-73
2022/07/18 01:48:19;;;;;;;6.03;4.20;;;17.70;99.90;;;;;;5097697;28;20115;-73
2022/07/18 01:50:46;;;;;;;8.82;4.53;;;17.70;99.90;;;;;;5097307;28;20043;-73
2022/07/18 01:53:13;;;;;;;6.70;4.20;;;17.60;99.90;;;;;;5096210;28;20040;-73
2022/07/18 01:55:38;;;;;;;7.50;4.30;;;17.50;99.90;;;;;;5096033;28;20089;-73
2022/07/18 01:58:05;;;;;;;8.15;3.90;;;17.50;99.90;;;;;;5096234;28;20040;-73
2022/07/18 02:00:30;;;;;;;7.97;3.85;;;17.60;99.90;;;;;;5096733;28;20439;-73
2022/07/18 02:02:56;;;;;;;7.18;4.07;;;17.60;99.90;;;;;;5096987;28;20078;-73
2022/07/18 02:05:22;;;;;;;7.53;4.22;;;17.50;99.90;;;;;;5097011;28;20333;-72
2022/07/18 02:07:48;;;;;;;7.05;4.20;;;17.60;99.90;;;;;;5095698;28;20040;-72
2022/07/18 02:10:18;;;;;;;7.38;3.75;;;17.60;99.90;;;;;;5096678;28;20036;-73
2022/07/18 02:12:44;;;;;;;6.95;3.80;;;17.60;99.90;;;;;;5096047;28;20348;-73
2022/07/18 02:15:11;;;;;;;6.68;4.28;;;17.60;99.90;;;;;;5094805;28;20036;-73
2022/07/18 02:17:37;;;;;;;10.32;4.45;;;17.60;99.90;;;;;;5095824;28;20097;-73
2022/07/18 02:20:06;;;;;;;8.80;4.13;;;17.50;99.90;;;;;;5096653;28;20359;-73
2022/07/18 02:22:32;;;;;;;7.82;4.78;;;17.40;99.90;;;;;;5095533;28;20101;-73
2022/07/18 02:24:57;;;;;;;7.72;4.30;;;17.40;99.90;;;;;;5095537;28;20035;-73
2022/07/18 02:27:23;;;;;;;7.13;4.30;;;17.40;99.90;;;;;;5096845;28;20046;-73
2022/07/18 02:29:49;;;;;;;7.70;4.53;;;17.40;99.90;;;;;;5095914;28;20062;-73
2022/07/18 02:32:15;;;;;;;7.80;4.43;;;17.30;99.90;;;;;;5095707;28;20321;-73
2022/07/18 02:34:41;;;;;;;8.63;4.57;;;17.20;99.90;;;;;;5096822;28;20043;-73
2022/07/18 02:37:07;;;;;;;8.63;4.70;;;17.20;99.90;;;;;;5096362;28;20392;-73
2022/07/18 02:39:33;;;;;;;7.13;4.05;;;17.20;99.90;;;;;;5096703;28;20036;-72
2022/07/18 02:41:59;;;;;;;9.95;4.13;;;17.20;99.90;;;;;;5096498;28;20040;-73
2022/07/18 02:44:25;;;;;;;9.48;4.70;;;17.10;99.90;;;;;;5095689;28;20040;-72
2022/07/18 02:46:51;;;;;;;7.00;4.20;;;17.20;99.90;;;;;;5095306;28;20046;-73
2022/07/18 02:49:28;;;;;;;8.70;4.57;;;17.20;99.90;;;;;;5095237;28;20040;-73
2022/07/18 02:52:06;;;;;;;7.65;4.15;;;17.10;99.90;;;;;;5095805;28;20044;-73
2022/07/18 02:54:34;;;;;;;7.80;4.25;;;17.10;99.90;;;;;;5096596;28;20048;-73
2022/07/18 02:57:00;;;;;;;6.93;4.45;;;17.10;99.90;;;;;;5095553;28;20047;-72
2022/07/18 02:59:26;;;;;;;8.40;4.60;;;17.30;99.90;;;;;;5095607;28;20115;-72
2022/07/18 03:01:53;;;;;;;7.63;4.25;;;17.30;99.90;;;;;;5096027;28;20386;-73
2022/07/18 03:04:19;;;;;;;9.00;4.78;;;17.30;99.90;;;;;;5095235;28;20052;-73
2022/07/18 03:06:46;;;;;;;8.95;4.18;;;17.30;99.90;;;;;;5096269;28;20447;-72
2022/07/18 03:09:12;;;;;;;6.45;4.40;;;17.30;99.90;;;;;;5096513;28;20475;-72
2022/07/18 03:11:38;;;;;;;7.90;4.68;;;17.30;99.90;;;;;;5095088;28;20036;-73
2022/07/18 03:14:04;;;;;;;8.50;4.03;;;17.30;99.90;;;;;;5096399;28;20329;-72
2022/07/18 03:16:29;;;;;;;9.70;4.88;;;17.40;99.90;;;;;;5096076;28;20036;-73
2022/07/18 03:18:55;;;;;;;7.35;4.40;;;17.40;99.90;;;;;;5095998;28;20036;-73
2022/07/18 03:21:21;;;;;;;9.63;4.60;;;17.40;99.90;;;;;;5096089;28;20065;-72
2022/07/18 03:23:47;;;;;;;6.80;4.60;;;17.40;99.90;;;;;;5096264;28;20047;-72
2022/07/18 03:26:13;;;;;;;7.20;4.20;;;17.40;99.90;;;;;;5098379;28;20048;-72
2022/07/18 03:28:38;;;;;;;8.57;4.40;;;17.40;99.90;;;;;;5099903;28;20067;-73
2022/07/18 03:31:05;;;;;;;9.70;5.07;;;17.40;99.90;;;;;;5098628;28;20052;-73
2022/07/18 03:33:30;;;;;;;10.48;5.03;;;17.40;99.90;;;;;;5100185;28;20039;-73
2022/07/18 03:35:56;;;;;;;10.18;4.68;;;17.40;99.90;;;;;;5100303;28;20036;-73
2022/07/18 03:38:22;;;;;;;8.32;4.70;;;17.40;99.90;;;;;;5099857;28;20036;-73
2022/07/18 03:40:47;;;;;;;7.28;4.57;;;17.30;99.90;;;;;;5100232;28;20048;-72
2022/07/18 03:43:13;;;;;;;7.57;4.60;;;17.30;99.90;;;;;;5100129;28;20071;-72
2022/07/18 03:45:39;;;;;;;7.32;4.35;;;17.30;99.90;;;;;;5098621;28;20036;-72
2022/07/18 03:48:05;;;;;;;8.75;4.97;;;17.30;99.90;;;;;;5098656;28;20044;-72
2022/07/18 03:50:31;;;;;;;8.35;4.75;;;17.30;99.90;;;;;;5099532;28;20089;-72
2022/07/18 03:52:56;;;;;;;6.78;4.60;;;17.30;99.90;;;;;;5099794;28;20036;-72
2022/07/18 03:55:23;;;;;;;7.13;4.50;;;17.40;99.90;;;;;;5098547;28;20132;-72
2022/07/18 03:57:48;;;;;;;9.25;4.18;;;17.40;99.90;;;;;;5099703;28;20122;-72
2022/07/18 04:00:14;;;;;;;9.10;4.38;;;17.30;99.90;;;;;;5098256;28;20127;-73
2022/07/18 04:02:42;;;;;;;9.15;4.90;;;17.20;99.90;;;;;;5099572;28;20123;-72
2022/07/18 04:05:11;;;;;;;6.68;4.43;;;17.30;99.90;;;;;;5099247;28;20043;-72
2022/07/18 04:07:37;;;;;;;7.55;4.45;;;17.30;99.90;;;;;;5098237;28;20044;-72
2022/07/18 04:10:05;;;;;;;8.27;5.00;;;17.30;99.90;;;;;;5098364;28;20044;-72
2022/07/18 04:12:31;;;;;;;8.75;4.22;;;17.30;99.90;;;;;;5099507;28;20071;-72
2022/07/18 04:15:00;;;;;;;8.60;4.85;;;17.30;99.90;;;;;;5098432;28;20111;-73
2022/07/18 04:17:26;;;;;;;6.90;4.68;;;17.30;99.90;;;;;;5091847;28;20118;-72
2022/07/18 04:19:53;;;;;;;9.20;4.28;;;17.20;99.90;;;;;;5096004;28;20402;-73
2022/07/18 04:22:18;;;;;;;7.18;4.40;;;17.20;99.90;;;;;;5098205;28;20032;-73
2022/07/18 04:24:44;;;;;;;7.85;4.70;;;17.30;99.90;;;;;;5098518;28;20040;-73
2022/07/18 04:27:10;;;;;;;8.50;4.45;;;17.40;99.90;;;;;;5098926;28;20036;-73
2022/07/18 04:29:37;;;;;;;7.95;4.70;;;17.50;99.90;;;;;;5098704;28;20052;-73
2022/07/18 04:32:03;;;;;;;7.13;4.30;;;17.60;99.90;;;;;;5080448;28;20051;-73
2022/07/18 04:34:29;;;;;;;12.18;4.30;;;17.70;99.90;;;;;;5098812;28;20413;-75
2022/07/18 04:36:55;;;;;;;9.15;4.68;;;17.80;99.90;;;;;;5098023;28;20039;-73
2022/07/18 04:39:20;;;;;;;8.13;4.20;;;17.90;99.90;;;;;;5097556;28;20123;-73
2022/07/18 04:41:47;;;;;;;7.60;4.55;;;18.00;99.90;;;;;;5098803;28;20051;-73
2022/07/18 04:44:13;;;;;;;9.52;3.60;;;18.00;99.90;;;;;;5098464;28;20503;-73
2022/07/18 04:46:39;;;;;;;12.07;4.40;;;18.10;99.90;;;;;;5097734;28;20131;-73
2022/07/18 04:49:04;;;;;;;7.13;3.80;;;18.20;99.90;;;;;;5098627;28;20032;-73
2022/07/18 04:51:30;;;;;;;6.80;3.65;;;18.30;99.90;;;;;;5097528;28;20036;-73
2022/07/18 04:53:56;;;;;;;8.43;4.00;;;18.30;99.90;;;;;;5097355;28;20040;-73
2022/07/18 04:56:22;;;;;;;7.07;2.90;;;18.40;99.90;;;;;;5097737;28;20058;-73
2022/07/18 04:58:48;;;;;;;7.32;3.38;;;18.50;99.90;;;;;;5098522;28;20402;-73
2022/07/18 05:01:13;;;;;;;6.55;3.83;;;18.70;99.90;;;;;;5098190;28;20048;-74
2022/07/18 05:03:39;;;;;;;11.27;3.28;;;18.80;99.90;;;;;;5098532;28;20043;-72
2022/07/18 05:06:05;;;;;;;7.03;3.78;;;18.80;99.90;;;;;;5097582;28;20441;-73
2022/07/18 05:08:30;;;;;;;7.05;3.67;;;18.90;99.90;;;;;;5080635;28;20383;-73
2022/07/18 05:10:56;;;;;;;7.05;3.17;;;19.00;99.90;;;;;;5098203;28;20444;-73
2022/07/18 05:13:22;;;;;;;7.07;3.13;;;19.10;99.90;;;;;;5097051;28;20040;-73
2022/07/18 05:15:48;;;;;;;6.60;3.28;;;19.00;99.90;;;;;;5097262;28;20040;-73
2022/07/18 05:18:13;;;;;;;6.50;3.38;;;19.10;99.90;;;;;;5080250;28;20068;-73
2022/07/18 05:20:39;;;;;;;9.50;3.17;;;19.20;99.90;;;;;;5098336;28;20079;-73
2022/07/18 05:23:04;;;;;;;3.92;2.55;;;19.30;99.90;;;;;;5098028;28;20066;-73
2022/07/18 05:25:30;;;;;;;6.18;3.13;;;19.20;99.90;;;;;;5097003;28;20040;-73
2022/07/18 05:27:56;;;;;;;7.25;3.05;;;19.40;99.90;;;;;;5097659;28;20044;-73
2022/07/18 05:30:23;;;;;;;6.97;3.10;;;19.40;99.90;;;;;;5097136;28;20113;-73
2022/07/18 05:32:49;;;;;;;7.40;3.53;;;19.50;99.90;;;;;;5096787;28;20075;-73
2022/07/18 05:35:15;;;;;;;7.63;3.25;;;19.60;99.90;;;;;;5097799;28;20400;-73
2022/07/18 05:37:41;;;;;;;9.63;3.22;;;19.70;99.90;;;;;;5096778;28;20306;-73
2022/07/18 05:40:10;;;;;;;6.03;3.13;;;19.70;99.90;;;;;;5097588;28;20122;-73
2022/07/18 05:42:36;;;;;;;5.45;2.70;;;19.80;99.90;;;;;;5097749;28;20044;-73
2022/07/18 05:45:02;;;;;;;6.85;3.30;;;19.70;99.90;;;;;;5096411;28;20047;-73
2022/07/18 05:47:28;;;;;;;6.32;3.35;;;19.80;99.90;;;;;;5097403;28;20444;-73
2022/07/18 05:49:54;;;;;;;7.90;2.88;;;19.80;99.90;;;;;;5097410;28;20072;-73
2022/07/18 05:52:19;;;;;;;8.68;2.90;;;19.90;99.90;;;;;;5097654;28;20044;-73
2022/07/18 05:54:45;;;;;;;10.63;2.92;;;20.00;99.90;;;;;;5096617;28;20035;-73
2022/07/18 05:57:11;;;;;;;9.15;3.15;;;19.80;99.90;;;;;;5079266;28;20048;-74
2022/07/18 05:59:36;;;;;;;6.80;3.20;;;19.90;99.90;;;;;;5097356;28;20036;-73
2022/07/18 06:02:02;;;;;;;9.50;2.83;;;20.00;99.90;;;;;;5095687;28;20139;-73
2022/07/18 06:04:28;;;;;;;4.65;2.40;;;20.10;99.90;;;;;;5097326;28;20043;-73
2022/07/18 06:06:53;;;;;;;4.97;2.95;;;20.10;99.90;;;;;;5096062;28;20051;-73
2022/07/18 06:09:19;;;;;;;5.13;2.28;;;20.20;99.90;;;;;;5096385;28;20040;-73
2022/07/18 06:11:45;;;;;;;4.80;2.60;;;20.30;99.90;;;;;;5130085;27;20044;-73
2022/07/18 06:14:11;;;;;;;7.78;2.80;;;20.30;99.90;;;;;;5096121;28;20047;-73
2022/07/18 06:16:36;;;;;;;8.27;3.08;;;20.50;99.90;;;;;;5096180;28;20039;-73
2022/07/18 06:19:03;;;;;;;7.65;3.38;;;20.60;99.90;;;;;;5096294;28;20036;-74
2022/07/18 06:21:32;;;;;;;5.45;2.67;;;20.70;99.90;;;;;;5097017;28;20119;-73
2022/07/18 06:23:57;;;;;;;5.15;2.80;;;20.70;99.90;;;;;;5079144;28;20082;-73
2022/07/18 06:26:23;;;;;;;5.00;2.78;;;20.90;99.90;;;;;;5096718;28;20079;-73
2022/07/18 06:28:49;;;;;;;7.40;3.05;;;21.00;99.90;;;;;;5096611;28;20044;-73
2022/07/18 06:31:16;;;;;;;5.07;2.47;;;21.10;99.90;;;;;;5096612;28;20043;-73
2022/07/18 06:33:42;;;;;;;6.47;3.00;;;21.10;99.90;;;;;;5097200;28;20079;-73
2022/07/18 06:36:08;;;;;;;5.35;2.70;;;21.30;99.80;;;;;;5095680;28;20123;-73
2022/07/18 06:38:34;;;;;;;5.97;2.92;;;21.50;99.90;;;;;;5095683;28;20443;-74
2022/07/18 06:40:59;;;;;;;6.15;2.72;;;21.50;99.90;;;;;;5095459;28;20127;-73
2022/07/18 06:43:25;;;;;;;7.05;2.67;;;21.60;99.60;;;;;;5095588;28;20123;-73
2022/07/18 06:45:52;;;;;;;5.20;2.40;;;21.60;99.70;;;;;;5096886;28;20142;-73
2022/07/18 06:48:18;;;;;;;6.15;2.90;;;21.80;99.90;;;;;;5096810;28;20156;-73
2022/07/18 06:50:44;;;;;;;4.45;2.45;;;21.70;99.80;;;;;;5096414;28;20429;-73
2022/07/18 06:53:10;;;;;;;6.13;2.63;;;21.80;99.90;;;;;;5129877;28;20042;-73
2022/07/18 06:55:36;;;;;;;5.32;2.40;;;21.90;99.90;;;;;;5078720;28;20333;-73
2022/07/18 06:58:02;;;;;;;6.25;2.28;;;22.00;99.90;;;;;;5096704;28;20043;-73
2022/07/18 07:00:31;;;;;;;4.55;2.30;;;22.00;99.90;;;;;;5097082;28;20046;-73
2022/07/18 07:02:56;;;;;;;5.28;2.67;;;22.10;99.90;;;;;;5100651;28;20349;-73
2022/07/18 07:05:22;;;;;;;6.32;2.22;;;22.20;99.50;;;;;;5134062;27;20052;-73
2022/07/18 07:07:48;;;;;;;4.63;2.20;;;22.00;99.60;;;;;;5099850;28;20032;-74
2022/07/18 07:10:16;;;;;;;5.65;2.28;;;22.10;99.80;;;;;;5100696;28;20039;-73
2022/07/18 07:12:43;;;;;;;5.20;2.00;;;22.00;99.30;;;;;;5100558;28;20072;-74
2022/07/18 07:15:10;;;;;;;5.80;2.03;;;22.20;99.80;;;;;;5099595;28;20040;-70
2022/07/18 07:17:38;;;;;;;7.20;2.20;;;22.30;99.60;;;;;;5100315;28;20097;-71
2022/07/18 07:20:06;;;;;;;8.18;1.85;;;22.40;99.20;;;;;;5100517;28;20043;-70
2022/07/18 07:22:40;;;;;;;8.57;1.80;;;22.50;99.00;;;;;;5100290;28;20040;-69
2022/07/18 07:25:06;;;;;;;4.90;1.65;;;22.60;99.30;;;;;;5100390;28;20051;-69
2022/07/18 07:27:32;;;;;;;6.90;2.15;;;22.70;99.40;;;;;;5100980;28;20097;-68
2022/07/18 07:29:57;;;;;;;4.20;1.75;;;22.80;99.20;;;;;;5099010;28;20048;-70
2022/07/18 07:32:23;;;;;;;5.22;1.83;;;22.90;99.10;;;;;;5100628;28;20056;-69
2022/07/18 07:34:49;;;;;;;7.85;1.95;;;22.90;99.10;;;;;;5101794;28;20067;-69
2022/07/18 07:37:14;;;;;;;3.42;1.63;;;23.00;99.30;;;;;;5099230;28;20048;-68
2022/07/18 07:39:40;;;;;;;4.05;1.77;;;23.20;99.30;;;;;;5100321;28;20442;-68
2022/07/18 07:42:06;;;;;;;4.80;1.67;;;23.40;99.30;;;;;;5100110;28;20453;-68
2022/07/18 07:44:32;;;;;;;4.47;1.88;;;23.60;98.90;;;;;;5099005;28;20043;-68
2022/07/18 07:46:59;;;;;;;7.72;2.00;;;23.50;99.20;;;;;;5099837;28;20044;-68
2022/07/18 07:49:25;;;;;;;5.25;1.58;;;23.60;99.10;;;;;;5100081;28;20371;-68
2022/07/18 07:51:51;;;;;;;4.97;1.63;;;23.80;99.10;;;;;;5099643;28;20101;-69
2022/07/18 07:54:16;;;;;;;9.80;1.70;;;23.90;98.80;;;;;;5098740;28;20039;-69
2022/07/18 07:56:42;;;;;;;6.97;1.73;;;24.10;98.80;;;;;;5099857;28;20202;-68
2022/07/18 07:59:08;;;;;;;6.32;1.85;;;24.20;98.80;;;;;;5099729;28;20431;-68
2022/07/18 08:01:33;;;;;;;6.55;2.20;;;24.20;98.70;;;;;;5099475;28;20486;-68
2022/07/18 08:03:59;;;;;;;4.32;1.80;;;24.20;99.10;;;;;;5099640;28;20498;-69
2022/07/18 08:06:26;;;;;;;5.47;1.48;;;24.40;99.50;;;;;;5099678;28;20039;-68
2022/07/18 08:08:52;;;;;;;3.08;1.30;;;24.70;98.90;;;;;;5098594;28;20047;-69
2022/07/18 08:11:17;;;;;;;5.30;1.67;;;24.80;98.80;;;;;;5098979;28;20048;-68
2022/07/18 08:13:43;;;;;;;4.22;1.83;;;25.00;98.50;;;;;;5097296;28;20036;-69
2022/07/18 08:16:09;;;;;;;7.38;1.67;;;25.10;98.50;;;;;;5099474;28;20062;-70
2022/07/18 08:18:34;;;;;;;5.55;1.90;;;25.30;98.70;;;;;;5099362;28;20067;-68
2022/07/18 08:21:00;;;;;;;6.22;1.60;;;25.40;98.70;;;;;;5099018;28;20310;-69
2022/07/18 08:23:25;;;;;;;5.28;1.40;;;25.50;98.80;;;;;;5099373;28;20039;-68
2022/07/18 08:25:51;;;;;;;4.30;1.58;;;25.40;98.30;;;;;;5099313;28;20108;-68
2022/07/18 08:28:17;;;;;;;7.45;1.52;;;25.40;98.10;;;;;;5099056;28;20044;-70
2022/07/18 08:30:43;;;;;;;3.60;1.65;;;25.30;98.40;;;;;;5092459;28;20061;-73
2022/07/18 08:33:08;;;;;;;4.45;1.63;;;25.50;98.20;;;;;;5089375;28;20059;-72
2022/07/18 08:35:34;;;;;;;4.75;1.48;;;25.70;98.50;;;;;;5083994;28;20085;-71
2022/07/18 08:38:01;;;;;;;6.55;1.55;;;25.90;98.20;;;;;;5098131;28;20325;-71
2022/07/18 08:40:27;;;;;;;5.22;1.60;;;26.00;97.70;;;;;;5096017;28;20048;-71
2022/07/18 08:42:55;;;;;;;5.47;1.80;;;26.10;98.30;;;;;;5086353;28;20101;-70
2022/07/18 08:45:23;;;;;;;6.65;1.63;;;26.10;98.10;;;;;;5077447;28;20375;-70
2022/07/18 08:47:49;;;;;;;5.55;1.50;;;26.30;98.20;;;;;;5078618;28;20044;-72
2022/07/18 08:50:15;;;;;;;3.65;1.30;;;26.50;97.90;;;;;;5078567;28;20437;-71
2022/07/18 08:52:41;;;;;;;5.18;1.52;;;26.50;98.20;;;;;;5078371;28;20040;-71
2022/07/18 08:55:08;;;;;;;3.72;1.30;;;26.60;98.00;;;;;;5078889;28;20036;-71
2022/07/18 08:57:33;;;;;;;8.40;1.70;;;26.60;98.20;;;;;;5078467;28;20048;-70
2022/07/18 09:00:00;;;;;;;2.45;1.10;;;26.60;97.50;;;;;;5078402;28;20063;-89
2022/07/18 09:02:27;;;;;;;6.22;1.45;;;26.50;98.00;;;;;;5060674;28;20062;-70
2022/07/18 09:04:53;;;;;;;2.70;1.45;;;26.30;98.30;;;;;;5078118;28;20040;-70
2022/07/18 09:07:30;;;;;;;4.75;1.30;;;26.40;98.30;;;;;;5078280;28;20483;-71
2022/07/18 09:09:58;;;;;;;7.63;1.60;;;26.50;98.20;;;;;;5077964;28;20462;-71
2022/07/18 09:12:29;;;;;;;5.10;1.73;;;26.20;98.20;;;;;;5077893;28;20060;-71
2022/07/18 09:14:55;;;;;;;4.60;1.27;;;26.20;98.00;;;;;;5077056;28;20075;-70
2022/07/18 09:17:30;;;;;;;3.05;1.42;;;26.30;98.60;;;;;;5077783;28;20075;-70
2022/07/18 09:19:57;;;;;;;7.28;1.48;;;26.40;98.50;;;;;;5078159;28;20032;-70
2022/07/18 09:22:25;;;;;;;6.63;1.73;;;26.50;98.30;;;;;;5077577;28;20425;-70
2022/07/18 09:24:59;;;;;;;4.30;1.77;;;26.30;98.00;;;;;;5077448;28;20055;-70
2022/07/18 09:27:29;;;;;;;7.82;1.30;;;26.40;98.30;;;;;;5077659;28;20041;-70
2022/07/18 09:30:16;;;;;;;4.60;1.10;;;26.50;98.30;;;;;;5076370;28;20059;-70
2022/07/18 09:32:48;;;;;;;5.78;1.20;;;26.70;98.00;;;;;;5077773;28;20076;-70
2022/07/18 09:35:26;;;;;;;4.35;1.30;;;26.70;98.20;;;;;;5077491;28;20036;-70
2022/07/18 09:38:21;;;;;;;4.07;1.30;;;26.90;98.00;;;;;;5077601;28;20040;-70
2022/07/18 09:40:49;;;;;;;5.57;1.35;;;27.00;97.80;;;;;;5076609;28;20314;-70
2022/07/18 09:43:17;;;;;;;7.22;1.20;;;27.30;97.60;;;;;;5077564;28;20045;-70
2022/07/18 09:45:49;;;;;;;7.95;1.35;;;27.50;97.50;;;;;;5077400;28;20052;-70
2022/07/18 09:48:18;;;;;;;7.00;1.30;;;27.40;97.30;;;;;;5077197;28;20044;-70
2022/07/18 09:50:49;;;;;;;6.53;1.08;;;27.60;97.40;;;;;;5077015;28;20037;-70
2022/07/18 09:53:26;;;;;;;6.40;1.30;;;27.60;97.20;;;;;;5077548;28;20044;-71
2022/07/18 09:56:02;;;;;;;6.45;1.35;;;27.50;97.40;;;;;;5076463;28;20043;-70
2022/07/18 09:58:33;;;;;;;3.17;1.42;;;27.60;97.10;;;;;;5077090;28;20450;-70
2022/07/18 10:01:01;;;;;;;3.85;1.38;;;27.70;97.40;;;;;;5076382;28;20048;-71
2022/07/18 10:03:27;;;;;;;6.80;1.67;;;27.70;97.50;;;;;;5077036;28;20044;-70
2022/07/18 10:05:55;;;;;;;7.60;1.60;;;27.80;97.40;;;;;;5076841;28;20052;-69
2022/07/18 10:08:24;;;;;;;5.53;1.63;;;27.80;97.20;;;;;;5076021;28;20067;-69
2022/07/18 10:10:51;;;;;;;4.82;1.42;;;28.20;97.60;;;;;;5076753;28;20029;-71
2022/07/18 10:13:18;;;;;;;5.82;1.40;;;28.10;97.10;;;;;;5076846;28;20052;-71
2022/07/18 10:15:45;;;;;;;4.63;1.40;;;28.20;97.80;;;;;;5076865;28;20043;-72
2022/07/18 10:18:14;;;;;;;8.68;1.63;;;28.60;98.00;;;;;;5076911;28;20044;-71
2022/07/18 10:20:44;;;;;;;8.20;1.80;;;28.80;97.00;;;;;;5076959;28;20052;-71
2022/07/18 10:23:13;;;;;;;5.20;1.70;;;28.90;97.80;;;;;;5076797;28;20080;-71
2022/07/18 10:25:39;;;;;;;7.13;1.80;;;28.80;97.10;;;;;;5076595;28;20361;-71
2022/07/18 10:28:08;;;;;;;3.58;1.48;;;29.00;97.30;;;;;;5076617;28;20044;-71
2022/07/18 10:30:45;;;;;;;3.90;1.70;;;29.10;97.20;;;;;;5075967;28;20256;-71
2022/07/18 10:33:37;;;;;;;4.57;2.10;;;29.10;96.90;;;;;;5075731;28;20418;-70
2022/07/18 10:36:07;;;;;;;4.13;1.55;;;29.10;96.70;;;;;;5076306;28;20050;-71
2022/07/18 10:38:34;;;;;;;5.72;1.92;;;29.10;96.60;;;;;;5077100;28;20041;-76
2022/07/18 10:41:11;;;;;;;3.85;1.58;;;29.20;96.60;;;;;;5076768;28;20044;-71
2022/07/18 10:43:40;;;;;;;6.80;1.67;;;29.20;96.30;;;;;;5075790;28;20451;-70
2022/07/18 10:46:08;;;;;;;4.80;1.80;;;29.20;96.60;;;;;;5076467;28;20420;-84
2022/07/18 10:48:37;;;;;;;4.35;1.80;;;29.30;97.20;;;;;;5076634;28;20333;-72
2022/07/18 10:51:13;;;;;;;9.65;2.50;;;29.20;96.30;;;;;;5075037;28;20048;-72
2022/07/18 10:53:53;;;;;;;5.20;2.50;;;29.50;96.40;;;;;;5076470;28;20124;-72
2022/07/18 10:56:42;;;;;;;4.55;2.15;;;29.70;95.80;;;;;;5076494;28;20341;-71
2022/07/18 10:59:16;;;;;;;5.63;1.95;;;29.60;95.60;;;;;;5076145;28;20037;-71
2022/07/18 11:01:55;;;;;;;4.93;2.10;;;29.70;96.10;;;;;;5075769;28;20099;-69
2022/07/18 11:04:32;;;;;;;5.88;2.63;;;30.10;96.30;;;;;;5075343;28;20091;-70
2022/07/18 11:07:12;;;;;;;5.18;2.05;;;30.30;95.30;;;;;;5076341;28;20064;-71
2022/07/18 11:09:41;;;;;;;7.32;2.30;;;30.30;95.50;;;;;;5075152;28;20048;-70
2022/07/18 11:12:26;;;;;;;4.80;2.40;;;30.70;95.60;;;;;;5074849;28;20093;-71
2022/07/18 11:14:59;;;;;;;8.15;2.80;;;31.10;95.80;;;;;;5076409;28;20072;-71
2022/07/18 11:17:58;;;;;;;5.15;2.42;;;31.50;95.70;;;;;;5076276;28;20032;-71
2022/07/18 11:20:33;;;;;;;6.68;2.92;;;31.70;95.10;;;;;;5075965;28;20036;-71
2022/07/18 11:22:59;;;;;;;7.80;2.97;;;31.00;95.00;;;;;;5076395;28;20094;-73
2022/07/18 11:25:27;;;;;;;4.82;2.38;;;30.70;95.30;;;;;;5075227;28;20110;-71
2022/07/18 11:27:53;;;;;;;5.40;2.22;;;30.90;95.10;;;;;;5076278;28;20060;-72
2022/07/18 11:30:20;;;;;;;4.13;2.40;;;31.10;94.70;;;;;;5074445;28;20384;-72
2022/07/18 11:32:46;;;;;;;5.28;2.58;;;31.40;95.00;;;;;;5076169;28;20059;-72
2022/07/18 11:35:13;;;;;;;4.85;2.70;;;31.30;94.80;;;;;;5076250;28;20402;-74
2022/07/18 11:37:47;;;;;;;6.80;2.65;;;31.60;94.90;;;;;;5058581;28;20048;-72
2022/07/18 11:40:14;;;;;;;6.85;2.97;;;31.90;94.90;;;;;;5091489;28;20050;-72
2022/07/18 11:42:41;;;;;;;3.92;2.42;;;32.10;94.80;;;;;;5075919;28;20040;-72
2022/07/18 11:45:09;;;;;;;7.35;2.88;;;32.50;94.60;;;;;;5076055;28;20037;-72
2022/07/18 11:47:49;;;;;;;4.35;2.60;;;32.30;94.50;;;;;;5078105;28;20037;-72
2022/07/18 11:50:17;;;;;;;6.75;3.00;;;32.20;94.20;;;;;;5079603;28;20115;-73
2022/07/18 11:52:44;;;;;;;7.07;2.90;;;32.40;94.90;;;;;;5078844;28;20040;-72
2022/07/18 11:55:12;;;;;;;4.95;2.38;;;32.50;94.20;;;;;;5079454;28;20067;-72
2022/07/18 11:57:37;;;;;;;7.47;2.65;;;32.60;94.60;;;;;;5079617;28;20040;-72
2022/07/18 12:00:20;;;;;;;9.25;2.90;;;32.50;94.40;;;;;;5079212;28;20059;-72
2022/07/18 12:03:08;;;;;;;6.57;2.72;;;32.50;93.50;;;;;;5079301;28;20425;-72
2022/07/18 12:05:36;;;;;;;6.30;3.05;;;32.30;94.10;;;;;;5079313;28;20114;-71
2022/07/18 12:08:31;;;;;;;7.55;2.80;;;32.20;93.40;;;;;;5079366;28;20033;-76
2022/07/18 12:11:10;;;;;;;5.15;3.08;;;32.50;94.70;;;;;;5078168;28;20040;-76
2022/07/18 12:13:49;;;;;;;5.85;3.08;;;32.90;93.80;;;;;;5087963;28;20040;-73
2022/07/18 12:16:42;;;;;;;8.60;3.08;;;32.90;93.50;;;;;;5094966;28;20303;-74
2022/07/18 12:19:24;;;;;;;4.55;3.22;;;33.20;93.80;;;;;;5090073;28;20443;-73
2022/07/18 12:22:05;;;;;;;6.25;2.95;;;33.20;93.10;;;;;;5097104;28;20325;-71
2022/07/18 12:24:39;;;;;;;5.82;2.95;;;33.20;93.20;;;;;;5091962;28;20032;-72
2022/07/18 12:27:14;;;;;;;5.13;2.80;;;33.20;93.60;;;;;;5086315;28;20037;-73
2022/07/18 12:30:21;;;;;;;5.97;3.03;;;33.50;93.20;;;;;;5078703;28;20122;-73
2022/07/18 12:32:54;;;;;;;3.78;3.00;;;33.80;93.60;;;;;;5096426;28;20052;-72
2022/07/18 12:35:19;;;;;;;4.07;2.63;;;33.70;93.00;;;;;;5096489;28;20055;-73
2022/07/18 12:38:15;;;;;;;5.10;2.63;;;33.90;93.10;;;;;;5098915;28;20033;-73
2022/07/18 12:40:53;;;;;;;3.28;2.45;;;33.90;92.70;;;;;;5094220;28;20055;-73
2022/07/18 12:43:33;;;;;;;4.00;2.65;;;33.70;92.80;;;;;;5093333;28;20047;-73
2022/07/18 12:46:01;;;;;;;5.45;2.53;;;33.80;93.50;;;;;;5098503;28;20032;-70
2022/07/18 12:48:29;;;;;;;5.15;2.88;;;34.00;93.20;;;;;;5097423;28;20115;-71
2022/07/18 12:51:15;;;;;;;18.55;3.40;;;34.30;93.80;;;;;;5093058;28;20373;-70
2022/07/18 12:53:41;;;;;;;;;;;34.40;93.90;;;;;;5088277;28;20055;-74